createdAt,value
2022-11-05T00:00:02.178Z,100914.03
2022-11-05T00:02:46.929Z,100913.97
2022-11-05T00:05:31.686Z,100920.91
2022-11-05T00:08:18.108Z,100917.34
2022-11-05T00:10:44.388Z,100917.41
2022-11-05T00:13:29.273Z,100921.72
2022-11-05T00:16:14.014Z,100921.69
2022-11-05T00:18:40.300Z,100926.03
2022-11-05T00:21:26.542Z,100928.59
2022-11-05T00:24:11.633Z,100932.94
2022-11-05T00:26:37.871Z,100938.19
2022-11-05T00:29:04.243Z,100933.84
2022-11-05T00:31:32.002Z,100940.81
2022-11-05T00:33:58.310Z,100940.72
2022-11-05T00:36:24.557Z,100944.09
2022-11-05T00:38:50.876Z,100949.19
2022-11-05T00:41:17.118Z,100944.66
2022-11-05T00:44:01.995Z,100949.81
2022-11-05T00:46:28.270Z,100940.97
2022-11-05T00:49:13.073Z,100949.63
2022-11-05T00:51:39.311Z,100955.59
2022-11-05T00:54:05.577Z,100960.81
2022-11-05T00:56:31.856Z,100952.84
2022-11-05T00:58:58.093Z,100954.53
2022-11-05T01:01:24.433Z,100965.84
2022-11-05T01:03:52.041Z,100965.84
2022-11-05T01:06:18.473Z,100962.47
2022-11-05T01:08:45.482Z,100970.31
2022-11-05T01:11:13.134Z,100968.53
2022-11-05T01:13:39.663Z,100972.81
2022-11-05T01:16:07.230Z,100970.06
2022-11-05T01:18:33.608Z,100981.25
2022-11-05T01:20:59.845Z,100976.88
2022-11-05T01:23:26.111Z,100975.13
2022-11-05T01:25:52.417Z,100976.69
2022-11-05T01:28:18.710Z,100977.50
2022-11-05T01:30:44.971Z,100976.53
2022-11-05T01:33:11.639Z,100978.22
2022-11-05T01:35:39.209Z,100972.94
2022-11-05T01:38:05.595Z,100982.50
2022-11-05T01:40:31.852Z,100978.25
2022-11-05T01:42:58.141Z,100973.97
2022-11-05T01:45:26.023Z,100974.94
2022-11-05T01:47:52.249Z,100974.16
2022-11-05T01:50:18.486Z,100968.94
2022-11-05T01:52:45.477Z,100962.84
2022-11-05T01:55:13.283Z,100973.38
2022-11-05T01:57:39.569Z,100969.94
2022-11-05T02:00:06.535Z,100975.13
2022-11-05T02:02:33.022Z,100974.06
2022-11-05T02:05:03.475Z,100972.31
2022-11-05T02:07:30.790Z,100982.81
2022-11-05T02:10:08.029Z,100986.34
2022-11-05T02:12:36.456Z,100979.31
2022-11-05T02:15:02.765Z,100980.16
2022-11-05T02:17:41.228Z,100982.69
2022-11-05T02:20:25.141Z,100977.25
2022-11-05T02:22:57.642Z,100977.91
2022-11-05T02:25:23.870Z,100983.09
2022-11-05T02:28:12.305Z,100974.34
2022-11-05T02:30:50.942Z,100978.69
2022-11-05T02:33:20.253Z,100973.25
2022-11-05T02:35:46.481Z,100973.94
2022-11-05T02:38:30.885Z,100979.78
2022-11-05T02:41:08.257Z,100980.31
2022-11-05T02:44:00.850Z,100977.66
2022-11-05T02:46:27.103Z,100981.28
2022-11-05T02:49:08.814Z,100980.47
2022-11-05T02:51:48.174Z,100974.31
2022-11-05T02:54:21.158Z,100970.72
2022-11-05T02:56:49.676Z,100986.28
2022-11-05T02:59:15.938Z,100981.88
2022-11-05T03:01:43.771Z,100982.81
2022-11-05T03:04:12.445Z,100983.63
2022-11-05T03:06:57.418Z,100988.91
2022-11-05T03:09:26.698Z,100983.69
2022-11-05T03:11:55.982Z,100977.56
2022-11-05T03:14:22.264Z,100978.34
2022-11-05T03:16:54.319Z,100982.63
2022-11-05T03:19:24.745Z,100984.50
2022-11-05T03:21:56.261Z,100993.34
2022-11-05T03:24:24.919Z,100984.59
2022-11-05T03:26:55.080Z,100987.09
2022-11-05T03:29:24.060Z,100990.47
2022-11-05T03:31:52.110Z,100998.31
2022-11-05T03:34:19.955Z,100993.97
2022-11-05T03:36:48.764Z,100990.72
2022-11-05T03:39:21.746Z,101009.00
2022-11-05T03:41:50.663Z,100997.75
2022-11-05T03:44:20.637Z,101001.28
2022-11-05T03:46:49.334Z,101004.81
2022-11-05T03:49:18.739Z,101001.19
2022-11-05T03:51:48.595Z,100994.94
2022-11-05T03:54:15.221Z,101001.63
2022-11-05T03:57:00.670Z,101005.75
2022-11-05T03:59:27.958Z,101003.97
2022-11-05T04:01:54.612Z,101004.75
2022-11-05T04:04:21.151Z,101021.28
2022-11-05T04:07:05.896Z,101020.47
2022-11-05T04:09:50.727Z,101021.66
2022-11-05T04:12:35.643Z,101021.72
2022-11-05T04:15:01.980Z,101023.47
2022-11-05T04:17:28.219Z,101023.31
2022-11-05T04:20:13.062Z,101028.69
2022-11-05T04:22:57.992Z,101030.38
2022-11-05T04:25:24.286Z,101028.53
2022-11-05T04:27:51.082Z,101034.63
2022-11-05T04:30:18.836Z,101037.28
2022-11-05T04:33:03.812Z,101041.78
2022-11-05T04:35:35.356Z,101032.91
2022-11-05T04:38:02.005Z,101045.31
2022-11-05T04:40:28.455Z,101036.50
2022-11-05T04:42:55.613Z,101039.91
2022-11-05T04:45:26.041Z,101036.38
2022-11-05T04:47:52.334Z,101042.91
2022-11-05T04:50:18.686Z,101040.69
2022-11-05T04:52:45.046Z,101038.13
2022-11-05T04:55:11.619Z,101041.50
2022-11-05T04:57:37.870Z,101046.78
2022-11-05T05:00:05.766Z,101051.00
2022-11-05T05:02:32.155Z,101049.50
2022-11-05T05:04:58.400Z,101056.44
2022-11-05T05:07:24.725Z,101052.66
2022-11-05T05:09:51.031Z,101055.81
2022-11-05T05:12:17.288Z,101053.88
2022-11-05T05:14:43.520Z,101053.72
2022-11-05T05:17:09.779Z,101059.63
2022-11-05T05:19:56.002Z,101056.78
2022-11-05T05:22:22.275Z,101056.44
2022-11-05T05:24:52.591Z,101051.09
2022-11-05T05:27:19.308Z,101051.84
2022-11-05T05:29:45.616Z,101057.06
2022-11-05T05:32:11.858Z,101064.00
2022-11-05T05:34:38.088Z,101063.13
2022-11-05T05:37:04.341Z,101063.97
2022-11-05T05:39:30.603Z,101064.78
2022-11-05T05:41:56.944Z,101068.22
2022-11-05T05:44:23.281Z,101071.53
2022-11-05T05:46:49.533Z,101068.91
2022-11-05T05:49:16.129Z,101078.50
2022-11-05T05:51:42.435Z,101076.69
2022-11-05T05:54:09.904Z,101082.97
2022-11-05T05:56:36.202Z,101082.25
2022-11-05T05:59:02.440Z,101082.38
2022-11-05T06:01:28.684Z,101079.59
2022-11-05T06:03:54.980Z,101085.66
2022-11-05T06:06:21.344Z,101085.00
2022-11-05T06:08:48.034Z,101084.16
2022-11-05T06:11:14.312Z,101082.53
2022-11-05T06:13:40.566Z,101085.28
2022-11-05T06:16:08.419Z,101090.56
2022-11-05T06:18:34.987Z,101088.97
2022-11-05T06:21:04.850Z,101090.00
2022-11-05T06:23:32.490Z,101091.25
2022-11-05T06:25:59.615Z,101092.38
2022-11-05T06:28:25.848Z,101096.81
2022-11-05T06:30:52.140Z,101101.97
2022-11-05T06:33:18.398Z,101104.53
2022-11-05T06:35:44.633Z,101108.13
2022-11-05T06:38:10.887Z,101110.94
2022-11-05T06:40:37.174Z,101108.41
2022-11-05T06:43:03.453Z,101116.47
2022-11-05T06:45:29.718Z,101109.75
2022-11-05T06:47:56.984Z,101116.00
2022-11-05T06:50:23.729Z,101121.28
2022-11-05T06:52:56.704Z,101118.78
2022-11-05T06:55:23.160Z,101125.88
2022-11-05T06:57:50.014Z,101122.47
2022-11-05T07:00:17.115Z,101131.22
2022-11-05T07:02:43.684Z,101128.66
2022-11-05T07:05:12.877Z,101133.28
2022-11-05T07:07:39.810Z,101133.34
2022-11-05T07:10:07.255Z,101140.41
2022-11-05T07:12:33.559Z,101139.63
2022-11-05T07:14:59.805Z,101145.00
2022-11-05T07:17:26.104Z,101144.13
2022-11-05T07:19:52.361Z,101147.84
2022-11-05T07:22:18.622Z,101143.69
2022-11-05T07:24:47.130Z,101140.34
2022-11-05T07:27:14.092Z,101144.03
2022-11-05T07:29:40.370Z,101151.09
2022-11-05T07:32:06.667Z,101143.34
2022-11-05T07:34:32.916Z,101145.31
2022-11-05T07:36:59.351Z,101148.88
2022-11-05T07:39:25.895Z,101145.59
2022-11-05T07:41:54.740Z,101142.97
2022-11-05T07:44:21.534Z,101150.97
2022-11-05T07:46:47.768Z,101152.03
2022-11-05T07:49:14.018Z,101155.81
2022-11-05T07:51:40.287Z,101157.81
2022-11-05T07:54:06.581Z,101160.69
2022-11-05T07:56:32.926Z,101163.44
2022-11-05T07:58:59.690Z,101172.31
2022-11-05T08:01:26.188Z,101165.50
2022-11-05T08:03:52.613Z,101170.81
2022-11-05T08:06:19.014Z,101169.16
2022-11-05T08:08:45.274Z,101177.09
2022-11-05T08:11:12.231Z,101178.91
2022-11-05T08:13:38.561Z,101178.06
2022-11-05T08:16:05.213Z,101176.34
2022-11-05T08:18:32.132Z,101179.78
2022-11-05T08:20:59.599Z,101180.72
2022-11-05T08:23:26.595Z,101186.09
2022-11-05T08:25:53.099Z,101179.31
2022-11-05T08:28:21.453Z,101177.84
2022-11-05T08:30:51.504Z,101182.63
2022-11-05T08:33:18.206Z,101182.97
2022-11-05T08:35:44.548Z,101173.53
2022-11-05T08:38:13.621Z,101182.34
2022-11-05T08:40:40.630Z,101174.47
2022-11-05T08:43:07.889Z,101176.22
2022-11-05T08:45:34.891Z,101179.03
2022-11-05T08:48:05.478Z,101184.47
2022-11-05T08:50:31.968Z,101187.34
2022-11-05T08:52:58.580Z,101191.06
2022-11-05T08:55:25.189Z,101187.59
2022-11-05T08:58:02.035Z,101186.69
2022-11-05T09:00:29.788Z,101191.03
2022-11-05T09:02:58.192Z,101197.13
2022-11-05T09:05:24.458Z,101195.28
2022-11-05T09:07:51.621Z,101187.28
2022-11-05T09:10:20.609Z,101184.69
2022-11-05T09:12:46.867Z,101193.69
2022-11-05T09:15:13.121Z,101193.09
2022-11-05T09:17:39.806Z,101194.25
2022-11-05T09:20:07.209Z,101198.00
2022-11-05T09:22:33.681Z,101205.28
2022-11-05T09:24:59.971Z,101195.91
2022-11-05T09:27:26.508Z,101204.13
2022-11-05T09:29:52.760Z,101195.59
2022-11-05T09:32:19.398Z,101197.53
2022-11-05T09:34:45.715Z,101201.19
2022-11-05T09:37:12.042Z,101202.28
2022-11-05T09:39:38.358Z,101198.75
2022-11-05T09:42:07.021Z,101202.13
2022-11-05T09:44:45.683Z,101197.59
2022-11-05T09:47:15.170Z,101209.78
2022-11-05T09:49:44.188Z,101214.13
2022-11-05T09:52:13.466Z,101208.84
2022-11-05T09:54:40.923Z,101210.56
2022-11-05T09:57:11.654Z,101215.84
2022-11-05T09:59:38.132Z,101211.56
2022-11-05T10:02:12.833Z,101213.44
2022-11-05T10:04:39.473Z,101219.78
2022-11-05T10:07:07.494Z,101214.75
2022-11-05T10:09:55.452Z,101215.75
2022-11-05T10:12:43.678Z,101217.66
2022-11-05T10:15:18.637Z,101217.00
2022-11-05T10:17:48.165Z,101224.22
2022-11-05T10:20:18.457Z,101216.44
2022-11-05T10:22:49.277Z,101223.53
2022-11-05T10:25:18.199Z,101221.81
2022-11-05T10:27:53.157Z,101219.34
2022-11-05T10:30:19.964Z,101224.03
2022-11-05T10:32:47.111Z,101217.28
2022-11-05T10:35:18.313Z,101216.59
2022-11-05T10:37:46.104Z,101217.66
2022-11-05T10:40:25.185Z,101217.66
2022-11-05T10:42:58.537Z,101213.25
2022-11-05T10:45:30.649Z,101218.47
2022-11-05T10:48:05.212Z,101221.03
2022-11-05T10:50:32.238Z,101220.09
2022-11-05T10:53:01.245Z,101226.31
2022-11-05T10:55:27.544Z,101216.72
2022-11-05T10:57:54.088Z,101224.94
2022-11-05T11:00:21.876Z,101216.63
2022-11-05T11:02:50.100Z,101211.28
2022-11-05T11:05:21.559Z,101221.66
2022-11-05T11:07:57.260Z,101217.03
2022-11-05T11:10:24.105Z,101216.88
2022-11-05T11:12:50.937Z,101220.38
2022-11-05T11:15:19.937Z,101211.47
2022-11-05T11:17:46.242Z,101219.91
2022-11-05T11:20:23.859Z,101212.00
2022-11-05T11:23:04.575Z,101212.09
2022-11-05T11:25:33.870Z,101207.91
2022-11-05T11:28:04.233Z,101222.56
2022-11-05T11:30:30.834Z,101221.03
2022-11-05T11:32:59.712Z,101218.41
2022-11-05T11:35:26.132Z,101216.66
2022-11-05T11:37:54.645Z,101211.34
2022-11-05T11:40:23.033Z,101213.97
2022-11-05T11:42:52.335Z,101207.84
2022-11-05T11:45:24.546Z,101212.22
2022-11-05T11:47:50.984Z,101218.38
2022-11-05T11:50:32.939Z,101214.81
2022-11-05T11:53:17.874Z,101224.50
2022-11-05T11:56:03.071Z,101224.44
2022-11-05T11:58:43.237Z,101219.97
2022-11-05T12:01:09.488Z,101223.47
2022-11-05T12:03:41.273Z,101224.41
2022-11-05T12:06:19.662Z,101219.13
2022-11-05T12:08:54.892Z,101222.66
2022-11-05T12:11:37.737Z,101222.72
2022-11-05T12:14:09.713Z,101216.56
2022-11-05T12:16:35.944Z,101223.63
2022-11-05T12:19:11.838Z,101213.97
2022-11-05T12:21:52.564Z,101216.63
2022-11-05T12:24:35.570Z,101213.97
2022-11-05T12:27:14.794Z,101205.84
2022-11-05T12:29:47.064Z,101205.72
2022-11-05T12:32:29.765Z,101203.84
2022-11-05T12:35:03.362Z,101215.81
2022-11-05T12:37:45.654Z,101209.56
2022-11-05T12:40:17.637Z,101209.66
2022-11-05T12:42:52.956Z,101207.03
2022-11-05T12:45:25.355Z,101200.69
2022-11-05T12:48:10.372Z,101209.53
2022-11-05T12:50:39.616Z,101206.56
2022-11-05T12:53:15.232Z,101206.47
2022-11-05T12:55:48.613Z,101202.75
2022-11-05T12:58:19.424Z,101203.00
2022-11-05T13:00:49.333Z,101205.69
2022-11-05T13:03:28.933Z,101205.09
2022-11-05T13:06:04.554Z,101208.69
2022-11-05T13:08:35.102Z,101212.22
2022-11-05T13:11:15.029Z,101211.34
2022-11-05T13:13:59.975Z,101213.13
2022-11-05T13:16:42.546Z,101208.69
2022-11-05T13:19:31.928Z,101214.88
2022-11-05T13:22:07.789Z,101208.69
2022-11-05T13:24:39.678Z,101214.00
2022-11-05T13:27:18.086Z,101209.59
2022-11-05T13:29:52.832Z,101209.59
2022-11-05T13:32:24.963Z,101206.94
2022-11-05T13:34:51.569Z,101211.34
2022-11-05T13:37:40.996Z,101213.09
2022-11-05T13:40:09.305Z,101214.84
2022-11-05T13:42:42.051Z,101210.41
2022-11-05T13:45:26.866Z,101213.06
2022-11-05T13:47:59.158Z,101218.34
2022-11-05T13:50:31.484Z,101218.31
2022-11-05T13:53:16.706Z,101215.59
2022-11-05T13:55:48.983Z,101213.84
2022-11-05T13:58:27.410Z,101216.50
2022-11-05T14:01:02.762Z,101214.75
2022-11-05T14:03:29.533Z,101213.03
2022-11-05T14:05:59.808Z,101216.56
2022-11-05T14:08:27.567Z,101220.06
2022-11-05T14:10:56.889Z,101223.59
2022-11-05T14:13:42.405Z,101216.50
2022-11-05T14:16:29.597Z,101208.56
2022-11-05T14:19:14.660Z,101215.69
2022-11-05T14:21:54.444Z,101220.91
2022-11-05T14:24:23.768Z,101220.88
2022-11-05T14:27:02.068Z,101219.94
2022-11-05T14:29:37.570Z,101219.88
2022-11-05T14:32:22.898Z,101231.34
2022-11-05T14:34:55.680Z,101222.56
2022-11-05T14:37:25.029Z,101230.47
2022-11-05T14:39:52.413Z,101233.13
2022-11-05T14:42:29.088Z,101232.25
2022-11-05T14:45:22.125Z,101234.09
2022-11-05T14:47:59.265Z,101232.38
2022-11-05T14:50:28.349Z,101235.88
2022-11-05T14:52:56.821Z,101231.41
2022-11-05T14:55:26.819Z,101230.50
2022-11-05T14:57:53.098Z,101229.56
2022-11-05T15:00:28.527Z,101230.38
2022-11-05T15:02:59.298Z,101234.69
2022-11-05T15:05:34.018Z,101234.56
2022-11-05T15:08:20.217Z,101233.56
2022-11-05T15:10:47.913Z,101231.69
2022-11-05T15:13:25.438Z,101238.66
2022-11-05T15:15:51.801Z,101244.69
2022-11-05T15:18:33.620Z,101242.88
2022-11-05T15:21:01.807Z,101241.03
2022-11-05T15:23:33.024Z,101237.44
2022-11-05T15:26:13.003Z,101243.50
2022-11-05T15:28:41.435Z,101249.59
2022-11-05T15:31:22.532Z,101246.81
2022-11-05T15:33:48.802Z,101244.97
2022-11-05T15:36:22.505Z,101243.19
2022-11-05T15:39:08.485Z,101246.66
2022-11-05T15:41:35.032Z,101248.34
2022-11-05T15:44:02.664Z,101245.66
2022-11-05T15:46:29.768Z,101255.28
2022-11-05T15:49:06.970Z,101248.22
2022-11-05T15:51:33.596Z,101250.88
2022-11-05T15:54:24.399Z,101252.66
2022-11-05T15:56:50.391Z,101249.19
2022-11-05T15:59:18.166Z,101263.25
2022-11-05T16:01:50.308Z,101255.34
2022-11-05T16:04:24.268Z,101253.56
2022-11-05T16:06:52.562Z,101258.78
2022-11-05T16:09:24.906Z,101260.50
2022-11-05T16:12:10.222Z,101258.72
2022-11-05T16:14:36.528Z,101256.94
2022-11-05T16:17:10.189Z,101259.59
2022-11-05T16:19:40.762Z,101263.09
2022-11-05T16:22:07.490Z,101262.22
2022-11-05T16:24:33.778Z,101269.22
2022-11-05T16:27:03.792Z,101260.44
2022-11-05T16:29:34.187Z,101264.94
2022-11-05T16:32:01.807Z,101270.22
2022-11-05T16:34:31.246Z,101259.69
2022-11-05T16:36:58.917Z,101260.53
2022-11-05T16:39:25.459Z,101258.75
2022-11-05T16:41:51.795Z,101255.25
2022-11-05T16:44:18.183Z,101254.41
2022-11-05T16:46:47.313Z,101272.91
2022-11-05T16:49:13.585Z,101269.44
2022-11-05T16:51:39.838Z,101280.97
2022-11-05T16:54:06.317Z,101274.81
2022-11-05T16:56:32.943Z,101276.56
2022-11-05T16:58:59.500Z,101268.66
2022-11-05T17:01:26.027Z,101273.91
2022-11-05T17:03:52.897Z,101275.63
2022-11-05T17:06:20.292Z,101274.75
2022-11-05T17:08:47.072Z,101274.75
2022-11-05T17:11:15.126Z,101280.00
2022-11-05T17:13:41.875Z,101283.56
2022-11-05T17:16:09.859Z,101279.16
2022-11-05T17:18:36.338Z,101276.50
2022-11-05T17:21:02.565Z,101280.88
2022-11-05T17:23:29.818Z,101277.34
2022-11-05T17:26:00.929Z,101279.06
2022-11-05T17:28:28.950Z,101279.06
2022-11-05T17:30:55.235Z,101278.19
2022-11-05T17:33:22.768Z,101283.47
2022-11-05T17:35:49.507Z,101279.94
2022-11-05T17:38:15.756Z,101279.91
2022-11-05T17:40:42.045Z,101273.75
2022-11-05T17:43:08.562Z,101279.84
2022-11-05T17:45:40.183Z,101285.09
2022-11-05T17:48:08.088Z,101279.81
2022-11-05T17:50:34.339Z,101275.41
2022-11-05T17:53:00.619Z,101275.38
2022-11-05T17:55:26.870Z,101283.28
2022-11-05T17:57:53.158Z,101288.59
2022-11-05T18:00:23.475Z,101285.06
2022-11-05T18:02:50.151Z,101289.38
2022-11-05T18:05:17.439Z,101292.00
2022-11-05T18:07:43.967Z,101293.69
2022-11-05T18:10:11.058Z,101291.00
2022-11-05T18:12:37.777Z,101292.72
2022-11-05T18:15:04.390Z,101291.81
2022-11-05T18:17:30.730Z,101289.97
2022-11-05T18:19:57.144Z,101309.28
2022-11-05T18:22:23.388Z,101304.00
2022-11-05T18:24:49.689Z,101297.84
2022-11-05T18:27:15.998Z,101297.78
2022-11-05T18:29:42.314Z,101299.53
2022-11-05T18:32:08.599Z,101294.19
2022-11-05T18:34:35.167Z,101288.06
2022-11-05T18:37:01.492Z,101288.91
2022-11-05T18:39:27.778Z,101285.41
2022-11-05T18:41:54.080Z,101276.59
2022-11-05T18:44:22.770Z,101286.28
2022-11-05T18:46:58.071Z,101288.88
2022-11-05T18:49:24.677Z,101289.72
2022-11-05T18:51:51.083Z,101291.47
2022-11-05T18:54:17.331Z,101283.53
2022-11-05T18:56:46.535Z,101284.38
2022-11-05T18:59:35.281Z,101276.47
2022-11-05T19:01:59.727Z,101266.84
2022-11-05T19:04:26.956Z,101278.22
2022-11-05T19:06:53.327Z,101274.72
2022-11-05T19:09:20.530Z,101271.19
2022-11-05T19:11:46.779Z,101269.41
2022-11-05T19:14:13.073Z,101274.69
2022-11-05T19:16:39.516Z,101278.19
2022-11-05T19:19:06.811Z,101268.53
2022-11-05T19:21:33.413Z,101271.19
2022-11-05T19:24:01.441Z,101271.19
2022-11-05T19:26:29.009Z,101275.53
2022-11-05T19:28:57.289Z,101279.94
2022-11-05T19:31:23.607Z,101273.72
2022-11-05T19:33:50.755Z,101278.09
2022-11-05T19:36:17.695Z,101285.13
2022-11-05T19:38:44.196Z,101282.50
2022-11-05T19:41:13.943Z,101285.13
2022-11-05T19:43:40.982Z,101276.34
2022-11-05T19:46:08.840Z,101279.03
2022-11-05T19:48:35.328Z,101279.97
2022-11-05T19:51:04.165Z,101278.19
2022-11-05T19:53:30.473Z,101278.19
2022-11-05T19:55:56.782Z,101279.91
2022-11-05T19:58:23.091Z,101280.81
2022-11-05T20:00:49.354Z,101282.53
2022-11-05T20:03:15.884Z,101287.84
2022-11-05T20:05:42.200Z,101282.59
2022-11-05T20:08:08.686Z,101288.75
2022-11-05T20:10:36.846Z,101292.28
2022-11-05T20:13:03.476Z,101290.53
2022-11-05T20:15:29.725Z,101294.94
2022-11-05T20:17:56.015Z,101280.88
2022-11-05T20:20:22.273Z,101286.16
2022-11-05T20:22:48.599Z,101285.28
2022-11-05T20:25:14.957Z,101279.19
2022-11-05T20:27:41.987Z,101273.03
2022-11-05T20:30:08.793Z,101266.84
2022-11-05T20:32:35.066Z,101268.59
2022-11-05T20:35:01.345Z,101262.47
2022-11-05T20:37:27.622Z,101261.59
2022-11-05T20:39:53.878Z,101268.56
2022-11-05T20:42:20.130Z,101263.28
2022-11-05T20:44:46.390Z,101267.63
2022-11-05T20:47:12.697Z,101271.06
2022-11-05T20:49:39.047Z,101266.66
2022-11-05T20:52:05.452Z,101270.13
2022-11-05T20:54:31.697Z,101278.88
2022-11-05T20:56:57.933Z,101278.81
2022-11-05T20:59:24.473Z,101282.34
2022-11-05T21:01:51.688Z,101280.59
2022-11-05T21:04:18.089Z,101285.78
2022-11-05T21:06:44.370Z,101291.97
2022-11-05T21:09:10.600Z,101290.16
2022-11-05T21:11:55.572Z,101295.47
2022-11-05T21:14:21.832Z,101299.00
2022-11-05T21:16:48.311Z,101300.78
2022-11-05T21:19:15.281Z,101299.88
2022-11-05T21:21:41.558Z,101290.22
2022-11-05T21:24:08.077Z,101298.19
2022-11-05T21:26:34.365Z,101306.94
2022-11-05T21:29:00.632Z,101300.78
2022-11-05T21:31:26.874Z,101299.88
2022-11-05T21:33:55.333Z,101304.31
2022-11-05T21:36:21.805Z,101295.56
2022-11-05T21:38:48.105Z,101298.19
2022-11-05T21:41:14.394Z,101295.50
2022-11-05T21:43:41.667Z,101282.34
2022-11-05T21:46:07.992Z,101287.66
2022-11-05T21:48:34.290Z,101278.00
2022-11-05T21:51:19.354Z,101277.16
2022-11-05T21:54:04.288Z,101281.53
2022-11-05T21:56:49.691Z,101281.56
2022-11-05T21:59:35.601Z,101281.53
2022-11-05T22:02:02.390Z,101278.84
2022-11-05T22:04:29.561Z,101270.06
2022-11-05T22:06:56.989Z,101270.94
2022-11-05T22:09:24.210Z,101268.25
2022-11-05T22:11:50.476Z,101261.22
2022-11-05T22:14:16.733Z,101254.22
2022-11-05T22:16:43.359Z,101242.78
2022-11-05T22:19:09.913Z,101249.81
2022-11-05T22:21:36.221Z,101255.06
2022-11-05T22:24:02.611Z,101255.06
2022-11-05T22:26:28.947Z,101248.91
2022-11-05T22:28:55.794Z,101244.53
2022-11-05T22:31:22.387Z,101237.53
2022-11-05T22:33:48.703Z,101234.00
2022-11-05T22:36:15.020Z,101234.00
2022-11-05T22:38:41.532Z,101227.81
2022-11-05T22:41:11.888Z,101228.69
2022-11-05T22:43:38.490Z,101234.88
2022-11-05T22:46:05.719Z,101227.00
2022-11-05T22:48:32.129Z,101228.72
2022-11-05T22:51:09.117Z,101227.84
2022-11-05T22:53:36.067Z,101229.63
2022-11-05T22:56:03.707Z,101227.84
2022-11-05T22:58:30.128Z,101231.41
2022-11-05T23:00:56.410Z,101226.13
2022-11-05T23:03:24.196Z,101222.59
2022-11-05T23:06:00.594Z,101219.09
2022-11-05T23:08:45.898Z,101228.75
2022-11-05T23:11:34.739Z,101224.34
2022-11-05T23:14:01.551Z,101225.28
2022-11-05T23:16:48.168Z,101227.00
2022-11-05T23:19:32.797Z,101218.25
2022-11-05T23:22:17.543Z,101206.84
2022-11-05T23:24:43.877Z,101208.56
2022-11-05T23:27:10.175Z,101207.69
2022-11-05T23:29:36.460Z,101215.66
2022-11-05T23:32:21.234Z,101200.66
2022-11-05T23:34:47.505Z,101204.16
2022-11-05T23:37:32.166Z,101203.28
2022-11-05T23:39:58.421Z,101205.06
2022-11-05T23:42:43.269Z,101200.69
2022-11-05T23:45:28.571Z,101212.16
2022-11-05T23:48:13.452Z,101208.63
2022-11-05T23:50:40.773Z,101209.56
2022-11-05T23:53:07.210Z,101207.81
2022-11-05T23:55:33.755Z,101207.84
2022-11-05T23:58:00.014Z,101198.19
